sensor_id;sensor_type;location;lat;lon;timestamp;P1;durP1;ratioP1;P2;durP2;ratioP2
61905;SDS011;47863;55.766;37.672;2022-08-11T00:02:25;8.40;;;1.40;;
61905;SDS011;47863;55.766;37.672;2022-08-11T00:04:55;4.25;;;1.50;;
61905;SDS011;47863;55.766;37.672;2022-08-11T00:07:22;5.15;;;1.02;;
61905;SDS011;47863;55.766;37.672;2022-08-11T00:09:49;6.15;;;1.38;;
61905;SDS011;47863;55.766;37.672;2022-08-11T00:12:16;2.35;;;1.13;;
61905;SDS011;47863;55.766;37.672;2022-08-11T00:14:42;1.65;;;1.13;;
61905;SDS011;47863;55.766;37.672;2022-08-11T00:17:11;2.97;;;1.20;;
61905;SDS011;47863;55.766;37.672;2022-08-11T00:19:39;6.20;;;1.30;;
61905;SDS011;47863;55.766;37.672;2022-08-11T00:22:08;5.07;;;1.40;;
61905;SDS011;47863;55.766;37.672;2022-08-11T00:24:38;2.28;;;1.55;;
61905;SDS011;47863;55.766;37.672;2022-08-11T00:27:05;4.65;;;1.40;;
61905;SDS011;47863;55.766;37.672;2022-08-11T00:29:32;4.15;;;1.33;;
61905;SDS011;47863;55.766;37.672;2022-08-11T00:31:59;4.00;;;1.33;;
61905;SDS011;47863;55.766;37.672;2022-08-11T00:34:29;5.03;;;1.40;;
61905;SDS011;47863;55.766;37.672;2022-08-11T00:37:01;3.60;;;1.38;;
61905;SDS011;47863;55.766;37.672;2022-08-11T00:39:31;2.92;;;1.23;;
61905;SDS011;47863;55.766;37.672;2022-08-11T00:42:15;9.30;;;1.67;;
61905;SDS011;47863;55.766;37.672;2022-08-11T00:53:29;5.85;;;1.50;;
61905;SDS011;47863;55.766;37.672;2022-08-11T01:07:22;4.88;;;1.42;;
61905;SDS011;47863;55.766;37.672;2022-08-11T01:13:00;5.60;;;1.20;;
61905;SDS011;47863;55.766;37.672;2022-08-11T01:50:14;3.50;;;1.40;;
61905;SDS011;47863;55.766;37.672;2022-08-11T02:02:01;9.50;;;1.92;;
61905;SDS011;47863;55.766;37.672;2022-08-11T02:04:36;3.53;;;1.77;;
61905;SDS011;47863;55.766;37.672;2022-08-11T02:07:28;5.03;;;1.52;;
61905;SDS011;47863;55.766;37.672;2022-08-11T02:13:48;4.60;;;1.42;;
61905;SDS011;47863;55.766;37.672;2022-08-11T02:16:46;6.40;;;1.63;;
61905;SDS011;47863;55.766;37.672;2022-08-11T02:22:04;3.20;;;1.40;;
61905;SDS011;47863;55.766;37.672;2022-08-11T02:25:05;6.75;;;1.67;;
61905;SDS011;47863;55.766;37.672;2022-08-11T02:27:47;6.50;;;1.80;;
61905;SDS011;47863;55.766;37.672;2022-08-11T02:30:19;5.07;;;1.60;;
61905;SDS011;47863;55.766;37.672;2022-08-11T02:32:50;7.60;;;1.77;;
61905;SDS011;47863;55.766;37.672;2022-08-11T02:35:38;5.30;;;1.60;;
61905;SDS011;47863;55.766;37.672;2022-08-11T02:58:09;4.45;;;1.38;;
61905;SDS011;47863;55.766;37.672;2022-08-11T03:00:44;5.88;;;1.50;;
61905;SDS011;47863;55.766;37.672;2022-08-11T03:03:31;12.18;;;1.50;;
61905;SDS011;47863;55.766;37.672;2022-08-11T03:09:22;5.07;;;1.60;;
61905;SDS011;47863;55.766;37.672;2022-08-11T03:14:47;5.82;;;1.85;;
61905;SDS011;47863;55.766;37.672;2022-08-11T03:17:48;7.28;;;1.60;;
61905;SDS011;47863;55.766;37.672;2022-08-11T03:26:14;3.53;;;1.55;;
61905;SDS011;47863;55.766;37.672;2022-08-11T03:28:52;4.35;;;1.77;;
61905;SDS011;47863;55.766;37.672;2022-08-11T03:31:31;8.80;;;1.80;;
61905;SDS011;47863;55.766;37.672;2022-08-11T03:42:26;5.00;;;1.70;;
61905;SDS011;47863;55.766;37.672;2022-08-11T03:47:57;3.45;;;1.50;;
61905;SDS011;47863;55.766;37.672;2022-08-11T04:10:54;4.10;;;1.98;;
61905;SDS011;47863;55.766;37.672;2022-08-11T04:24:52;3.95;;;1.60;;
61905;SDS011;47863;55.766;37.672;2022-08-11T04:30:39;7.07;;;2.13;;
61905;SDS011;47863;55.766;37.672;2022-08-11T04:33:32;5.88;;;2.08;;
61905;SDS011;47863;55.766;37.672;2022-08-11T04:36:09;4.45;;;2.17;;
61905;SDS011;47863;55.766;37.672;2022-08-11T04:54:30;5.85;;;1.90;;
61905;SDS011;47863;55.766;37.672;2022-08-11T05:01:05;4.50;;;1.83;;
61905;SDS011;47863;55.766;37.672;2022-08-11T05:13:10;6.50;;;2.20;;
61905;SDS011;47863;55.766;37.672;2022-08-11T05:16:17;9.02;;;2.47;;
61905;SDS011;47863;55.766;37.672;2022-08-11T05:19:07;10.13;;;2.15;;
61905;SDS011;47863;55.766;37.672;2022-08-11T05:21:59;5.55;;;1.90;;
61905;SDS011;47863;55.766;37.672;2022-08-11T05:24:46;7.88;;;2.10;;
61905;SDS011;47863;55.766;37.672;2022-08-11T05:28:18;6.20;;;1.98;;
61905;SDS011;47863;55.766;37.672;2022-08-11T05:30:46;5.03;;;2.40;;
61905;SDS011;47863;55.766;37.672;2022-08-11T05:33:33;7.55;;;1.90;;
61905;SDS011;47863;55.766;37.672;2022-08-11T05:36:29;6.70;;;2.00;;
61905;SDS011;47863;55.766;37.672;2022-08-11T05:39:24;10.10;;;1.85;;
61905;SDS011;47863;55.766;37.672;2022-08-11T05:42:11;4.00;;;1.90;;
61905;SDS011;47863;55.766;37.672;2022-08-11T05:44:58;5.72;;;1.60;;
61905;SDS011;47863;55.766;37.672;2022-08-11T05:47:49;8.60;;;1.88;;
61905;SDS011;47863;55.766;37.672;2022-08-11T05:50:34;7.45;;;1.65;;
61905;SDS011;47863;55.766;37.672;2022-08-11T05:53:20;8.15;;;1.67;;
61905;SDS011;47863;55.766;37.672;2022-08-11T05:56:05;6.90;;;2.40;;
61905;SDS011;47863;55.766;37.672;2022-08-11T05:58:53;6.35;;;2.08;;
61905;SDS011;47863;55.766;37.672;2022-08-11T06:01:23;8.38;;;2.25;;
61905;SDS011;47863;55.766;37.672;2022-08-11T06:03:51;4.97;;;1.70;;
61905;SDS011;47863;55.766;37.672;2022-08-11T06:06:37;4.90;;;1.88;;
61905;SDS011;47863;55.766;37.672;2022-08-11T06:09:05;6.82;;;2.10;;
61905;SDS011;47863;55.766;37.672;2022-08-11T06:11:38;8.73;;;2.60;;
61905;SDS011;47863;55.766;37.672;2022-08-11T06:14:06;7.70;;;2.80;;
61905;SDS011;47863;55.766;37.672;2022-08-11T06:16:34;8.35;;;1.60;;
61905;SDS011;47863;55.766;37.672;2022-08-11T06:19:02;9.75;;;1.52;;
61905;SDS011;47863;55.766;37.672;2022-08-11T06:21:32;4.82;;;1.70;;
61905;SDS011;47863;55.766;37.672;2022-08-11T06:24:02;13.27;;;1.85;;
61905;SDS011;47863;55.766;37.672;2022-08-11T06:26:39;8.45;;;1.60;;
61905;SDS011;47863;55.766;37.672;2022-08-11T06:29:06;5.47;;;1.52;;
61905;SDS011;47863;55.766;37.672;2022-08-11T06:31:34;5.63;;;1.40;;
61905;SDS011;47863;55.766;37.672;2022-08-11T06:42:31;2.63;;;1.20;;
61905;SDS011;47863;55.766;37.672;2022-08-11T06:45:15;7.35;;;1.30;;
61905;SDS011;47863;55.766;37.672;2022-08-11T06:47:58;3.75;;;1.50;;
61905;SDS011;47863;55.766;37.672;2022-08-11T06:50:26;4.82;;;1.52;;
61905;SDS011;47863;55.766;37.672;2022-08-11T06:53:14;2.47;;;1.08;;
61905;SDS011;47863;55.766;37.672;2022-08-11T06:55:43;8.15;;;1.60;;
61905;SDS011;47863;55.766;37.672;2022-08-11T06:58:30;3.88;;;1.40;;
61905;SDS011;47863;55.766;37.672;2022-08-11T07:01:23;4.10;;;1.25;;
61905;SDS011;47863;55.766;37.672;2022-08-11T07:03:58;2.13;;;1.20;;
61905;SDS011;47863;55.766;37.672;2022-08-11T07:06:38;4.45;;;1.52;;
61905;SDS011;47863;55.766;37.672;2022-08-11T07:14:57;2.40;;;1.00;;
61905;SDS011;47863;55.766;37.672;2022-08-11T07:17:48;1.10;;;0.70;;
61905;SDS011;47863;55.766;37.672;2022-08-11T07:20:37;2.55;;;0.90;;
61905;SDS011;47863;55.766;37.672;2022-08-11T07:23:23;1.85;;;0.95;;
61905;SDS011;47863;55.766;37.672;2022-08-11T07:26:07;5.78;;;0.90;;
61905;SDS011;47863;55.766;37.672;2022-08-11T07:28:52;4.28;;;0.90;;
61905;SDS011;47863;55.766;37.672;2022-08-11T07:31:20;2.20;;;0.63;;
61905;SDS011;47863;55.766;37.672;2022-08-11T07:36:41;2.13;;;0.88;;
61905;SDS011;47863;55.766;37.672;2022-08-11T07:39:16;2.28;;;0.65;;
61905;SDS011;47863;55.766;37.672;2022-08-11T07:41:45;3.70;;;0.60;;
61905;SDS011;47863;55.766;37.672;2022-08-11T07:44:13;2.20;;;0.90;;
61905;SDS011;47863;55.766;37.672;2022-08-11T07:46:41;2.45;;;0.70;;
61905;SDS011;47863;55.766;37.672;2022-08-11T07:49:28;2.85;;;0.75;;
61905;SDS011;47863;55.766;37.672;2022-08-11T07:52:14;3.30;;;0.60;;
61905;SDS011;47863;55.766;37.672;2022-08-11T07:55:14;1.92;;;0.77;;
61905;SDS011;47863;55.766;37.672;2022-08-11T07:57:44;1.45;;;0.73;;
61905;SDS011;47863;55.766;37.672;2022-08-11T08:00:34;6.05;;;1.10;;
61905;SDS011;47863;55.766;37.672;2022-08-11T08:03:23;2.72;;;0.80;;
61905;SDS011;47863;55.766;37.672;2022-08-11T08:06:08;2.03;;;0.77;;
61905;SDS011;47863;55.766;37.672;2022-08-11T08:08:52;5.18;;;0.82;;
61905;SDS011;47863;55.766;37.672;2022-08-11T08:11:39;2.78;;;0.90;;
61905;SDS011;47863;55.766;37.672;2022-08-11T08:14:24;3.65;;;0.75;;
61905;SDS011;47863;55.766;37.672;2022-08-11T08:17:09;10.32;;;5.97;;
61905;SDS011;47863;55.766;37.672;2022-08-11T08:19:53;2.47;;;0.73;;
61905;SDS011;47863;55.766;37.672;2022-08-11T08:25:04;2.80;;;1.15;;
61905;SDS011;47863;55.766;37.672;2022-08-11T08:27:31;2.55;;;1.00;;
61905;SDS011;47863;55.766;37.672;2022-08-11T08:29:59;1.25;;;0.70;;
61905;SDS011;47863;55.766;37.672;2022-08-11T08:32:48;4.72;;;0.90;;
61905;SDS011;47863;55.766;37.672;2022-08-11T08:35:15;2.58;;;1.00;;
61905;SDS011;47863;55.766;37.672;2022-08-11T08:37:42;2.78;;;1.25;;
61905;SDS011;47863;55.766;37.672;2022-08-11T08:40:08;2.72;;;0.70;;
61905;SDS011;47863;55.766;37.672;2022-08-11T08:42:40;3.40;;;0.80;;
61905;SDS011;47863;55.766;37.672;2022-08-11T08:45:12;3.05;;;0.80;;
61905;SDS011;47863;55.766;37.672;2022-08-11T08:47:53;1.30;;;0.65;;
61905;SDS011;47863;55.766;37.672;2022-08-11T08:50:27;1.00;;;0.60;;
61905;SDS011;47863;55.766;37.672;2022-08-11T08:53:15;1.77;;;0.70;;
61905;SDS011;47863;55.766;37.672;2022-08-11T08:55:44;1.90;;;0.60;;
61905;SDS011;47863;55.766;37.672;2022-08-11T08:58:11;2.78;;;0.70;;
61905;SDS011;47863;55.766;37.672;2022-08-11T09:00:39;7.43;;;2.42;;
61905;SDS011;47863;55.766;37.672;2022-08-11T09:03:07;1.42;;;0.60;;
61905;SDS011;47863;55.766;37.672;2022-08-11T09:05:34;1.40;;;0.73;;
61905;SDS011;47863;55.766;37.672;2022-08-11T09:08:00;2.28;;;0.77;;
61905;SDS011;47863;55.766;37.672;2022-08-11T09:10:27;2.78;;;0.80;;
61905;SDS011;47863;55.766;37.672;2022-08-11T09:12:55;3.15;;;0.80;;
61905;SDS011;47863;55.766;37.672;2022-08-11T09:15:21;1.60;;;0.75;;
61905;SDS011;47863;55.766;37.672;2022-08-11T09:17:55;3.70;;;1.15;;
61905;SDS011;47863;55.766;37.672;2022-08-11T09:20:27;4.93;;;0.80;;
61905;SDS011;47863;55.766;37.672;2022-08-11T09:22:58;4.38;;;0.88;;
61905;SDS011;47863;55.766;37.672;2022-08-11T09:25:45;2.20;;;0.73;;
61905;SDS011;47863;55.766;37.672;2022-08-11T09:28:30;2.45;;;0.82;;
61905;SDS011;47863;55.766;37.672;2022-08-11T09:30:58;3.00;;;0.70;;
61905;SDS011;47863;55.766;37.672;2022-08-11T09:33:26;2.10;;;0.70;;
61905;SDS011;47863;55.766;37.672;2022-08-11T09:35:54;2.42;;;0.75;;
61905;SDS011;47863;55.766;37.672;2022-08-11T09:38:22;2.88;;;0.60;;
61905;SDS011;47863;55.766;37.672;2022-08-11T09:41:09;0.63;;;0.60;;
61905;SDS011;47863;55.766;37.672;2022-08-11T09:43:39;3.03;;;0.63;;
61905;SDS011;47863;55.766;37.672;2022-08-11T09:46:27;1.58;;;0.50;;
61905;SDS011;47863;55.766;37.672;2022-08-11T09:48:56;1.95;;;0.50;;
61905;SDS011;47863;55.766;37.672;2022-08-11T09:51:24;1.38;;;0.60;;
61905;SDS011;47863;55.766;37.672;2022-08-11T09:53:52;0.95;;;0.52;;
61905;SDS011;47863;55.766;37.672;2022-08-11T09:56:20;3.35;;;0.60;;
61905;SDS011;47863;55.766;37.672;2022-08-11T09:59:07;1.20;;;0.65;;
61905;SDS011;47863;55.766;37.672;2022-08-11T10:01:35;0.98;;;0.52;;
61905;SDS011;47863;55.766;37.672;2022-08-11T10:04:12;0.77;;;0.50;;
61905;SDS011;47863;55.766;37.672;2022-08-11T10:07:02;3.03;;;0.57;;
61905;SDS011;47863;55.766;37.672;2022-08-11T10:12:09;0.90;;;0.70;;
61905;SDS011;47863;55.766;37.672;2022-08-11T10:14:39;6.13;;;0.77;;
61905;SDS011;47863;55.766;37.672;2022-08-11T10:17:29;2.20;;;0.85;;
61905;SDS011;47863;55.766;37.672;2022-08-11T10:19:58;1.33;;;0.70;;
61905;SDS011;47863;55.766;37.672;2022-08-11T10:22:29;0.57;;;0.50;;
61905;SDS011;47863;55.766;37.672;2022-08-11T10:25:14;3.70;;;0.65;;
61905;SDS011;47863;55.766;37.672;2022-08-11T10:27:59;1.70;;;0.60;;
61905;SDS011;47863;55.766;37.672;2022-08-11T10:30:28;2.90;;;0.65;;
61905;SDS011;47863;55.766;37.672;2022-08-11T10:33:12;3.05;;;0.60;;
61905;SDS011;47863;55.766;37.672;2022-08-11T10:35:59;2.35;;;0.73;;
61905;SDS011;47863;55.766;37.672;2022-08-11T10:38:26;4.25;;;0.70;;
61905;SDS011;47863;55.766;37.672;2022-08-11T10:40:52;1.48;;;0.70;;
61905;SDS011;47863;55.766;37.672;2022-08-11T10:43:38;1.40;;;0.70;;
61905;SDS011;47863;55.766;37.672;2022-08-11T10:46:06;1.20;;;0.73;;
61905;SDS011;47863;55.766;37.672;2022-08-11T10:48:53;2.00;;;0.63;;
61905;SDS011;47863;55.766;37.672;2022-08-11T10:51:23;2.15;;;0.70;;
61905;SDS011;47863;55.766;37.672;2022-08-11T10:54:09;4.32;;;0.73;;
61905;SDS011;47863;55.766;37.672;2022-08-11T10:56:54;0.95;;;0.60;;
61905;SDS011;47863;55.766;37.672;2022-08-11T10:59:39;2.83;;;0.98;;
61905;SDS011;47863;55.766;37.672;2022-08-11T11:02:08;6.93;;;1.40;;
61905;SDS011;47863;55.766;37.672;2022-08-11T11:05:01;1.48;;;0.63;;
61905;SDS011;47863;55.766;37.672;2022-08-11T11:07:37;4.22;;;1.00;;
61905;SDS011;47863;55.766;37.672;2022-08-11T11:10:12;1.33;;;0.60;;
61905;SDS011;47863;55.766;37.672;2022-08-11T11:12:42;1.83;;;0.80;;
61905;SDS011;47863;55.766;37.672;2022-08-11T11:21:05;2.72;;;0.93;;
61905;SDS011;47863;55.766;37.672;2022-08-11T11:23:39;2.50;;;0.75;;
61905;SDS011;47863;55.766;37.672;2022-08-11T11:34:00;3.53;;;0.90;;
61905;SDS011;47863;55.766;37.672;2022-08-11T11:36:58;2.60;;;0.80;;
61905;SDS011;47863;55.766;37.672;2022-08-11T11:39:26;2.97;;;0.90;;
61905;SDS011;47863;55.766;37.672;2022-08-11T11:41:56;2.35;;;0.85;;
61905;SDS011;47863;55.766;37.672;2022-08-11T11:44:26;1.30;;;0.70;;
61905;SDS011;47863;55.766;37.672;2022-08-11T11:46:52;2.03;;;0.75;;
61905;SDS011;47863;55.766;37.672;2022-08-11T11:49:21;1.33;;;0.65;;
61905;SDS011;47863;55.766;37.672;2022-08-11T11:51:49;3.70;;;0.70;;
61905;SDS011;47863;55.766;37.672;2022-08-11T11:54:26;6.13;;;0.88;;
61905;SDS011;47863;55.766;37.672;2022-08-11T11:56:54;2.20;;;0.80;;
61905;SDS011;47863;55.766;37.672;2022-08-11T11:59:23;5.32;;;1.30;;
61905;SDS011;47863;55.766;37.672;2022-08-11T12:02:10;4.00;;;0.93;;
61905;SDS011;47863;55.766;37.672;2022-08-11T12:04:40;1.35;;;0.80;;
61905;SDS011;47863;55.766;37.672;2022-08-11T12:07:07;1.13;;;0.60;;
61905;SDS011;47863;55.766;37.672;2022-08-11T12:09:52;4.35;;;0.75;;
61905;SDS011;47863;55.766;37.672;2022-08-11T12:12:19;2.63;;;0.88;;
61905;SDS011;47863;55.766;37.672;2022-08-11T12:15:05;2.88;;;0.70;;
61905;SDS011;47863;55.766;37.672;2022-08-11T12:17:33;1.80;;;0.70;;
61905;SDS011;47863;55.766;37.672;2022-08-11T12:20:00;1.98;;;0.60;;
61905;SDS011;47863;55.766;37.672;2022-08-11T12:22:28;3.10;;;0.68;;
61905;SDS011;47863;55.766;37.672;2022-08-11T12:25:13;1.17;;;0.70;;
61905;SDS011;47863;55.766;37.672;2022-08-11T12:27:58;3.25;;;0.80;;
61905;SDS011;47863;55.766;37.672;2022-08-11T12:30:24;1.67;;;0.82;;
61905;SDS011;47863;55.766;37.672;2022-08-11T12:32:49;1.83;;;0.80;;
61905;SDS011;47863;55.766;37.672;2022-08-11T12:35:16;2.45;;;0.90;;
61905;SDS011;47863;55.766;37.672;2022-08-11T12:37:44;3.95;;;0.88;;
61905;SDS011;47863;55.766;37.672;2022-08-11T12:40:23;3.88;;;1.30;;
61905;SDS011;47863;55.766;37.672;2022-08-11T12:43:13;3.95;;;1.20;;
61905;SDS011;47863;55.766;37.672;2022-08-11T12:46:01;4.90;;;1.70;;
61905;SDS011;47863;55.766;37.672;2022-08-11T12:48:31;2.67;;;0.90;;
61905;SDS011;47863;55.766;37.672;2022-08-11T12:51:23;1.58;;;0.82;;
61905;SDS011;47863;55.766;37.672;2022-08-11T12:56:47;2.53;;;0.70;;
61905;SDS011;47863;55.766;37.672;2022-08-11T12:59:37;2.05;;;1.10;;
61905;SDS011;47863;55.766;37.672;2022-08-11T13:02:22;4.10;;;1.23;;
61905;SDS011;47863;55.766;37.672;2022-08-11T13:05:10;5.97;;;0.93;;
61905;SDS011;47863;55.766;37.672;2022-08-11T13:07:39;2.50;;;0.90;;
61905;SDS011;47863;55.766;37.672;2022-08-11T13:10:08;5.20;;;1.27;;
61905;SDS011;47863;55.766;37.672;2022-08-11T13:12:36;12.98;;;1.77;;
61905;SDS011;47863;55.766;37.672;2022-08-11T13:15:16;4.95;;;1.48;;
61905;SDS011;47863;55.766;37.672;2022-08-11T13:17:45;3.10;;;1.30;;
61905;SDS011;47863;55.766;37.672;2022-08-11T13:20:15;5.95;;;2.28;;
61905;SDS011;47863;55.766;37.672;2022-08-11T13:22:45;4.22;;;1.90;;
61905;SDS011;47863;55.766;37.672;2022-08-11T13:25:14;4.78;;;1.10;;
61905;SDS011;47863;55.766;37.672;2022-08-11T13:27:42;4.10;;;1.52;;
61905;SDS011;47863;55.766;37.672;2022-08-11T13:30:11;5.78;;;1.23;;
61905;SDS011;47863;55.766;37.672;2022-08-11T13:32:56;2.42;;;1.10;;
61905;SDS011;47863;55.766;37.672;2022-08-11T13:35:23;3.25;;;0.90;;
61905;SDS011;47863;55.766;37.672;2022-08-11T13:37:51;1.23;;;1.10;;
61905;SDS011;47863;55.766;37.672;2022-08-11T13:40:19;2.28;;;1.00;;
61905;SDS011;47863;55.766;37.672;2022-08-11T13:42:46;2.20;;;1.17;;
61905;SDS011;47863;55.766;37.672;2022-08-11T13:45:13;5.25;;;1.30;;
61905;SDS011;47863;55.766;37.672;2022-08-11T13:47:39;11.43;;;1.27;;
61905;SDS011;47863;55.766;37.672;2022-08-11T13:50:07;2.95;;;1.30;;
61905;SDS011;47863;55.766;37.672;2022-08-11T13:52:34;6.90;;;1.40;;
61905;SDS011;47863;55.766;37.672;2022-08-11T13:55:03;6.82;;;1.25;;
61905;SDS011;47863;55.766;37.672;2022-08-11T13:57:32;4.28;;;2.88;;
61905;SDS011;47863;55.766;37.672;2022-08-11T13:59:59;5.50;;;1.50;;
61905;SDS011;47863;55.766;37.672;2022-08-11T14:02:35;5.05;;;1.30;;
61905;SDS011;47863;55.766;37.672;2022-08-11T14:05:08;4.25;;;1.27;;
61905;SDS011;47863;55.766;37.672;2022-08-11T14:07:38;3.95;;;1.63;;
61905;SDS011;47863;55.766;37.672;2022-08-11T14:10:06;3.38;;;1.30;;
61905;SDS011;47863;55.766;37.672;2022-08-11T14:12:36;7.90;;;1.20;;
61905;SDS011;47863;55.766;37.672;2022-08-11T14:15:28;2.65;;;1.27;;
61905;SDS011;47863;55.766;37.672;2022-08-11T14:17:59;3.67;;;1.50;;
61905;SDS011;47863;55.766;37.672;2022-08-11T14:20:33;5.72;;;2.55;;
61905;SDS011;47863;55.766;37.672;2022-08-11T14:23:38;3.88;;;1.60;;
61905;SDS011;47863;55.766;37.672;2022-08-11T14:26:10;2.25;;;1.30;;
61905;SDS011;47863;55.766;37.672;2022-08-11T14:28:53;2.70;;;1.50;;
61905;SDS011;47863;55.766;37.672;2022-08-11T14:31:27;7.25;;;1.48;;
61905;SDS011;47863;55.766;37.672;2022-08-11T14:33:56;5.80;;;1.52;;
61905;SDS011;47863;55.766;37.672;2022-08-11T14:36:27;3.95;;;1.30;;
61905;SDS011;47863;55.766;37.672;2022-08-11T14:38:55;2.28;;;1.15;;
61905;SDS011;47863;55.766;37.672;2022-08-11T14:41:26;4.93;;;1.48;;
61905;SDS011;47863;55.766;37.672;2022-08-11T14:44:23;3.30;;;1.35;;
61905;SDS011;47863;55.766;37.672;2022-08-11T14:47:18;4.53;;;1.80;;
61905;SDS011;47863;55.766;37.672;2022-08-11T14:49:45;12.50;;;2.97;;
61905;SDS011;47863;55.766;37.672;2022-08-11T14:52:13;6.30;;;2.13;;
61905;SDS011;47863;55.766;37.672;2022-08-11T14:54:45;4.47;;;1.30;;
61905;SDS011;47863;55.766;37.672;2022-08-11T14:57:32;6.63;;;1.73;;
61905;SDS011;47863;55.766;37.672;2022-08-11T15:00:02;4.50;;;1.40;;
61905;SDS011;47863;55.766;37.672;2022-08-11T15:02:30;3.13;;;1.40;;
61905;SDS011;47863;55.766;37.672;2022-08-11T15:05:19;13.38;;;8.98;;
61905;SDS011;47863;55.766;37.672;2022-08-11T15:07:46;3.58;;;2.13;;
61905;SDS011;47863;55.766;37.672;2022-08-11T15:10:12;5.55;;;2.08;;
61905;SDS011;47863;55.766;37.672;2022-08-11T15:12:40;4.70;;;2.10;;
61905;SDS011;47863;55.766;37.672;2022-08-11T15:15:07;5.28;;;1.55;;
61905;SDS011;47863;55.766;37.672;2022-08-11T15:17:53;5.60;;;1.60;;
61905;SDS011;47863;55.766;37.672;2022-08-11T15:20:20;6.72;;;1.95;;
61905;SDS011;47863;55.766;37.672;2022-08-11T15:23:06;4.50;;;1.58;;
61905;SDS011;47863;55.766;37.672;2022-08-11T15:25:55;3.47;;;1.67;;
61905;SDS011;47863;55.766;37.672;2022-08-11T15:31:09;4.28;;;1.45;;
61905;SDS011;47863;55.766;37.672;2022-08-11T15:33:58;7.07;;;3.38;;
61905;SDS011;47863;55.766;37.672;2022-08-11T15:36:47;2.80;;;1.70;;
61905;SDS011;47863;55.766;37.672;2022-08-11T15:39:35;5.50;;;2.00;;
61905;SDS011;47863;55.766;37.672;2022-08-11T15:42:25;4.45;;;1.63;;
61905;SDS011;47863;55.766;37.672;2022-08-11T15:45:11;1.70;;;1.17;;
61905;SDS011;47863;55.766;37.672;2022-08-11T15:47:58;1.88;;;1.20;;
61905;SDS011;47863;55.766;37.672;2022-08-11T15:50:32;3.88;;;1.50;;
61905;SDS011;47863;55.766;37.672;2022-08-11T15:53:03;5.20;;;1.23;;
61905;SDS011;47863;55.766;37.672;2022-08-11T15:55:41;10.15;;;1.48;;
61905;SDS011;47863;55.766;37.672;2022-08-11T15:58:09;5.32;;;1.63;;
61905;SDS011;47863;55.766;37.672;2022-08-11T16:00:55;5.22;;;1.77;;
61905;SDS011;47863;55.766;37.672;2022-08-11T16:03:41;3.10;;;1.45;;
61905;SDS011;47863;55.766;37.672;2022-08-11T16:12:23;4.53;;;1.48;;
61905;SDS011;47863;55.766;37.672;2022-08-11T16:14:57;3.72;;;1.58;;
61905;SDS011;47863;55.766;37.672;2022-08-11T16:17:45;4.45;;;1.50;;
61905;SDS011;47863;55.766;37.672;2022-08-11T16:20:24;6.88;;;3.90;;
61905;SDS011;47863;55.766;37.672;2022-08-11T16:22:51;5.78;;;2.17;;
61905;SDS011;47863;55.766;37.672;2022-08-11T16:25:21;5.68;;;1.83;;
61905;SDS011;47863;55.766;37.672;2022-08-11T16:27:50;5.38;;;1.70;;
61905;SDS011;47863;55.766;37.672;2022-08-11T16:30:24;3.10;;;1.70;;
61905;SDS011;47863;55.766;37.672;2022-08-11T16:32:52;2.58;;;1.90;;
61905;SDS011;47863;55.766;37.672;2022-08-11T16:35:22;3.03;;;1.83;;
61905;SDS011;47863;55.766;37.672;2022-08-11T16:38:07;9.00;;;2.17;;
61905;SDS011;47863;55.766;37.672;2022-08-11T16:40:55;2.47;;;1.55;;
61905;SDS011;47863;55.766;37.672;2022-08-11T16:43:22;6.30;;;1.73;;
61905;SDS011;47863;55.766;37.672;2022-08-11T16:46:09;4.35;;;1.73;;
61905;SDS011;47863;55.766;37.672;2022-08-11T16:48:56;5.55;;;1.90;;
61905;SDS011;47863;55.766;37.672;2022-08-11T16:51:24;4.25;;;1.88;;
61905;SDS011;47863;55.766;37.672;2022-08-11T16:53:49;5.22;;;1.88;;
61905;SDS011;47863;55.766;37.672;2022-08-11T16:56:19;2.47;;;1.60;;
61905;SDS011;47863;55.766;37.672;2022-08-11T16:58:50;7.13;;;2.63;;
61905;SDS011;47863;55.766;37.672;2022-08-11T17:01:37;4.32;;;2.35;;
61905;SDS011;47863;55.766;37.672;2022-08-11T17:04:08;8.27;;;1.90;;
61905;SDS011;47863;55.766;37.672;2022-08-11T17:07:04;11.27;;;2.40;;
61905;SDS011;47863;55.766;37.672;2022-08-11T17:09:49;8.60;;;2.35;;
61905;SDS011;47863;55.766;37.672;2022-08-11T17:12:37;5.75;;;2.20;;
61905;SDS011;47863;55.766;37.672;2022-08-11T17:15:22;6.28;;;1.95;;
61905;SDS011;47863;55.766;37.672;2022-08-11T17:18:11;4.20;;;1.98;;
61905;SDS011;47863;55.766;37.672;2022-08-11T17:21:00;5.30;;;1.92;;
61905;SDS011;47863;55.766;37.672;2022-08-11T17:23:28;4.70;;;2.17;;
61905;SDS011;47863;55.766;37.672;2022-08-11T17:26:13;9.05;;;2.30;;
61905;SDS011;47863;55.766;37.672;2022-08-11T17:31:11;5.65;;;2.65;;
61905;SDS011;47863;55.766;37.672;2022-08-11T17:33:57;8.90;;;2.33;;
61905;SDS011;47863;55.766;37.672;2022-08-11T17:36:42;6.55;;;2.50;;
61905;SDS011;47863;55.766;37.672;2022-08-11T17:39:09;7.20;;;2.10;;
61905;SDS011;47863;55.766;37.672;2022-08-11T17:41:36;5.32;;;2.30;;
61905;SDS011;47863;55.766;37.672;2022-08-11T17:44:23;6.47;;;2.15;;
61905;SDS011;47863;55.766;37.672;2022-08-11T17:47:09;4.25;;;2.53;;
61905;SDS011;47863;55.766;37.672;2022-08-11T17:49:54;5.85;;;2.30;;
61905;SDS011;47863;55.766;37.672;2022-08-11T17:52:22;7.07;;;2.67;;
61905;SDS011;47863;55.766;37.672;2022-08-11T17:55:07;6.10;;;3.30;;
61905;SDS011;47863;55.766;37.672;2022-08-11T17:57:52;5.82;;;2.17;;
61905;SDS011;47863;55.766;37.672;2022-08-11T18:00:37;8.57;;;2.13;;
61905;SDS011;47863;55.766;37.672;2022-08-11T18:03:04;6.28;;;2.70;;
61905;SDS011;47863;55.766;37.672;2022-08-11T18:05:48;5.78;;;2.67;;
61905;SDS011;47863;55.766;37.672;2022-08-11T18:08:15;3.63;;;2.10;;
61905;SDS011;47863;55.766;37.672;2022-08-11T18:11:02;10.82;;;2.70;;
61905;SDS011;47863;55.766;37.672;2022-08-11T18:13:48;6.70;;;2.78;;
61905;SDS011;47863;55.766;37.672;2022-08-11T18:16:35;8.88;;;2.58;;
61905;SDS011;47863;55.766;37.672;2022-08-11T18:19:19;13.13;;;2.90;;
61905;SDS011;47863;55.766;37.672;2022-08-11T18:22:19;4.82;;;2.83;;
61905;SDS011;47863;55.766;37.672;2022-08-11T18:25:09;12.23;;;2.85;;
61905;SDS011;47863;55.766;37.672;2022-08-11T18:27:55;7.82;;;2.70;;
61905;SDS011;47863;55.766;37.672;2022-08-11T18:30:43;6.80;;;2.40;;
61905;SDS011;47863;55.766;37.672;2022-08-11T18:33:52;8.43;;;3.67;;
61905;SDS011;47863;55.766;37.672;2022-08-11T18:36:38;9.30;;;3.10;;
61905;SDS011;47863;55.766;37.672;2022-08-11T18:39:26;9.70;;;2.75;;
61905;SDS011;47863;55.766;37.672;2022-08-11T18:42:14;12.40;;;3.17;;
61905;SDS011;47863;55.766;37.672;2022-08-11T18:45:00;10.73;;;3.15;;
61905;SDS011;47863;55.766;37.672;2022-08-11T18:47:50;7.35;;;2.80;;
61905;SDS011;47863;55.766;37.672;2022-08-11T18:50:37;6.95;;;2.90;;
61905;SDS011;47863;55.766;37.672;2022-08-11T18:53:24;9.15;;;2.97;;
61905;SDS011;47863;55.766;37.672;2022-08-11T18:56:11;9.57;;;2.90;;
61905;SDS011;47863;55.766;37.672;2022-08-11T18:58:58;9.52;;;3.10;;
61905;SDS011;47863;55.766;37.672;2022-08-11T19:01:44;11.15;;;3.20;;
61905;SDS011;47863;55.766;37.672;2022-08-11T19:04:29;11.30;;;3.05;;
61905;SDS011;47863;55.766;37.672;2022-08-11T19:07:14;12.75;;;4.65;;
61905;SDS011;47863;55.766;37.672;2022-08-11T19:10:00;17.25;;;4.60;;
61905;SDS011;47863;55.766;37.672;2022-08-11T19:12:47;11.15;;;3.80;;
61905;SDS011;47863;55.766;37.672;2022-08-11T19:15:33;10.25;;;3.65;;
61905;SDS011;47863;55.766;37.672;2022-08-11T19:18:19;11.68;;;3.20;;
61905;SDS011;47863;55.766;37.672;2022-08-11T19:21:05;9.60;;;3.50;;
61905;SDS011;47863;55.766;37.672;2022-08-11T19:23:51;10.45;;;3.05;;
61905;SDS011;47863;55.766;37.672;2022-08-11T19:26:39;11.77;;;3.72;;